Time;durP1;ratioP1;P1;durP2;ratioP2;P2;SDS_P1;SDS_P2;PMS_P1;PMS_P2;Temp;Humidity;BMP_temperature;BMP_pressure;BME280_temperature;BME280_humidity;BME280_pressure;Samples;Min_cycle;Max_cycle;Signal;HPM_P1;HPM_P2
2021/08/06 00:01:00;;;;;;;;;8.50;7.25;;;;;37.07;11.44;99784.19;144265;700;131022;-72
2021/08/06 00:03:33;;;;;;;;;11.00;8.00;;;;;36.08;11.70;99777.47;144237;599;131021;-72
2021/08/06 00:06:08;;;;;;;;;8.25;8.25;;;;;37.73;11.01;99786.66;144265;627;131020;-72
2021/08/06 00:08:42;;;;;;;;;9.00;8.25;;;;;38.09;10.87;99776.38;144234;573;131909;-75
2021/08/06 00:11:16;;;;;;;;;9.25;9.00;;;;;38.26;11.54;99777.25;144257;597;132010;-78
2021/08/06 00:13:50;;;;;;;;;10.25;7.00;;;;;38.40;11.05;99776.91;144236;634;131908;-74
2021/08/06 00:16:24;;;;;;;;;6.75;6.75;;;;;38.43;11.31;99776.41;144258;646;132011;-75
2021/08/06 00:18:58;;;;;;;;;10.25;7.50;;;;;38.41;12.12;99784.03;144224;616;132021;-75
2021/08/06 00:21:32;;;;;;;;;8.75;5.50;;;;;38.46;12.38;99786.84;144241;628;132010;-74
2021/08/06 00:24:06;;;;;;;;;8.25;7.25;;;;;38.48;11.96;99779.22;144234;625;131909;-70
2021/08/06 00:26:39;;;;;;;;;8.00;6.50;;;;;38.49;11.40;99777.31;144264;578;131043;-67
2021/08/06 00:29:14;;;;;;;;;9.75;5.00;;;;;38.43;10.67;99777.22;144234;573;131909;-67
2021/08/06 00:31:47;;;;;;;;;11.00;7.50;;;;;38.28;10.66;99776.16;144259;576;132011;-67
2021/08/06 00:34:22;;;;;;;;;10.00;8.75;;;;;38.19;11.21;99776.53;144225;570;132909;-69
2021/08/06 00:36:56;;;;;;;;;12.25;7.00;;;;;38.10;10.75;99773.37;144262;588;131022;-69
2021/08/06 00:39:30;;;;;;;;;10.50;7.75;;;;;37.97;10.87;99779.16;144241;586;132909;-70
2021/08/06 00:42:04;;;;;;;;;8.00;7.25;;;;;37.89;11.17;99777.69;144255;596;132010;-70
2021/08/06 00:44:38;;;;;;;;;9.50;9.00;;;;;37.81;11.35;99783.56;144228;638;131909;-72
2021/08/06 00:47:12;;;;;;;;;9.50;7.75;;;;;37.75;11.38;99784.50;144238;628;132014;-72
2021/08/06 00:49:47;;;;;;;;;11.00;8.25;;;;;37.65;11.78;99784.31;144228;594;132014;-72
2021/08/06 00:52:21;;;;;;;;;12.75;7.75;;;;;37.42;11.62;99778.66;144262;597;132008;-75
2021/08/06 00:54:56;;;;;;;;;7.25;5.25;;;;;37.35;12.27;99779.91;144236;577;131016;-74
2021/08/06 00:57:30;;;;;;;;;10.00;9.25;;;;;36.74;12.51;99777.44;144259;613;132010;-72
2021/08/06 01:00:04;;;;;;;;;7.75;7.25;;;;;36.36;12.10;99781.44;144237;652;131909;-75
2021/08/06 01:03:00;;;;;;;;;9.50;8.75;;;;;37.01;12.27;99782.44;144260;605;132010;-74
2021/08/06 01:05:39;;;;;;;;;7.75;7.75;;;;;37.31;12.17;99785.00;144231;651;132018;-71
2021/08/06 01:08:27;;;;;;;;;5.75;4.75;;;;;37.51;12.10;99781.88;144257;649;132010;-73
2021/08/06 01:11:08;;;;;;;;;9.00;8.00;;;;;37.18;11.91;99783.34;144233;586;131909;-74
2021/08/06 01:13:57;;;;;;;;;8.00;5.25;;;;;37.57;12.34;99780.87;144244;662;132014;-79
2021/08/06 01:16:34;;;;;;;;;10.75;9.00;;;;;37.18;12.14;99782.50;144230;818;132012;-74
2021/08/06 01:19:28;;;;;;;;;9.25;9.25;;;;;37.63;12.54;99779.06;144261;602;132012;-72
2021/08/06 01:22:17;;;;;;;;;12.50;7.00;;;;;37.80;12.71;99789.25;144232;579;131909;-73
2021/08/06 01:25:24;;;;;;;;;10.75;9.50;;;;;37.79;12.33;99774.75;144263;646;132014;-73
2021/08/06 01:27:59;;;;;;;;;9.25;9.00;;;;;37.97;12.63;99786.56;144228;641;132910;-71
2021/08/06 01:30:33;;;;;;;;;8.00;6.00;;;;;37.98;12.29;99780.84;144266;585;132015;-71
2021/08/06 01:33:07;;;;;;;;;10.00;8.00;;;;;37.96;12.27;99782.16;144230;608;132909;-73
2021/08/06 01:35:41;;;;;;;;;9.00;9.00;;;;;38.03;12.58;99782.81;144267;565;131020;-70
2021/08/06 01:38:17;;;;;;;;;10.50;6.50;;;;;37.98;12.08;99774.53;144233;570;131909;-71
2021/08/06 01:41:41;;;;;;;;;9.75;8.25;;;;;37.51;12.86;99773.66;144242;588;132010;-70
2021/08/06 01:44:40;;;;;;;;;9.25;8.25;;;;;37.82;12.60;99776.97;144230;597;132020;-70
2021/08/06 01:47:27;;;;;;;;;11.75;8.50;;;;;37.70;12.65;99787.13;144266;607;131014;-69
2021/08/06 01:50:10;;;;;;;;;7.00;7.00;;;;;37.39;12.57;99787.37;144234;670;132908;-68
2021/08/06 01:52:54;;;;;;;;;4.00;3.25;;;;;37.64;12.88;99780.72;144262;620;131020;-76
2021/08/06 01:55:28;;;;;;;;;9.25;7.50;;;;;37.57;12.87;99774.56;144228;572;133005;-69
2021/08/06 01:58:04;;;;;;;;;11.50;9.50;;;;;37.72;12.75;99777.59;144264;579;131020;-70
2021/08/06 02:00:38;;;;;;;;;8.00;8.00;;;;;37.57;13.04;99772.66;144234;631;132909;-70
2021/08/06 02:03:14;;;;;;;;;7.50;7.25;;;;;37.66;12.54;99761.31;144266;633;132010;-69
2021/08/06 02:05:55;;;;;;;;;9.75;9.00;;;;;37.70;12.68;99773.44;144223;648;132020;-70
2021/08/06 02:08:29;;;;;;;;;10.50;8.00;;;;;37.67;13.21;99773.94;144247;567;131042;-71
2021/08/06 02:11:03;;;;;;;;;9.50;8.00;;;;;37.78;12.95;99759.38;144230;588;132014;-68
2021/08/06 02:13:39;;;;;;;;;10.25;9.50;;;;;37.71;13.39;99764.97;144258;594;132010;-67
2021/08/06 02:16:13;;;;;;;;;9.25;9.00;;;;;37.76;13.04;99761.56;144233;646;132012;-68
2021/08/06 02:18:52;;;;;;;;;12.25;10.25;;;;;37.65;13.02;99760.50;144257;574;132010;-66
2021/08/06 02:21:32;;;;;;;;;10.75;8.75;;;;;37.53;13.32;99754.25;144214;590;132012;-67
2021/08/06 02:24:11;;;;;;;;;14.00;10.00;;;;;37.51;13.36;99765.44;144255;603;132014;-68
2021/08/06 02:26:48;;;;;;;;;11.00;7.00;;;;;37.43;13.52;99758.44;144225;574;131908;-67
2021/08/06 02:29:25;;;;;;;;;8.75;7.75;;;;;37.37;13.87;99762.16;144263;624;131020;-68
2021/08/06 02:32:02;;;;;;;;;11.00;9.00;;;;;37.30;13.52;99761.44;144229;564;132013;-66
2021/08/06 02:34:37;;;;;;;;;9.25;9.25;;;;;37.31;14.08;99760.38;144249;565;131020;-67
2021/08/06 02:37:11;;;;;;;;;9.25;9.25;;;;;37.19;13.74;99760.38;144224;628;132014;-68
2021/08/06 02:39:44;;;;;;;;;11.50;10.25;;;;;37.10;13.76;99753.66;144257;614;132024;-69
2021/08/06 02:42:18;;;;;;;;;9.25;8.25;;;;;36.95;13.84;99758.75;144227;612;132909;-69
2021/08/06 02:44:52;;;;;;;;;10.25;10.00;;;;;36.78;14.55;99758.66;144261;615;131021;-68
2021/08/06 02:47:27;;;;;;;;;9.00;8.50;;;;;36.65;14.58;99759.72;144214;634;132014;-69
2021/08/06 02:50:01;;;;;;;;;9.75;8.75;;;;;36.62;14.14;99757.47;144267;563;131020;-67
2021/08/06 02:52:35;;;;;;;;;15.25;11.25;;;;;36.50;14.53;99755.56;144242;574;131909;-67
2021/08/06 02:55:10;;;;;;;;;10.00;9.50;;;;;36.47;14.69;99750.59;144253;641;132012;-67
2021/08/06 02:57:44;;;;;;;;;12.00;9.00;;;;;36.39;15.18;99757.22;144231;601;132012;-66
2021/08/06 03:00:19;;;;;;;;;12.00;10.50;;;;;36.51;15.37;99751.78;144248;680;131021;-69
2021/08/06 03:02:53;;;;;;;;;13.25;11.00;;;;;36.56;15.37;99754.59;144221;689;132909;-70
2021/08/06 03:05:27;;;;;;;;;10.00;9.00;;;;;36.41;14.92;99749.59;144248;580;132010;-70
2021/08/06 03:08:01;;;;;;;;;12.75;9.00;;;;;36.43;15.28;99754.88;144229;572;132012;-69
2021/08/06 03:10:37;;;;;;;;;13.25;10.75;;;;;36.26;15.42;99751.94;144258;707;132014;-71
2021/08/06 03:13:11;;;;;;;;;9.50;7.50;;;;;36.18;15.73;99747.66;144216;745;132014;-70
2021/08/06 03:15:44;;;;;;;;;11.75;8.75;;;;;36.24;15.85;99754.91;144270;579;131022;-69
2021/08/06 03:18:19;;;;;;;;;14.50;12.75;;;;;36.37;15.25;99755.78;144236;564;132012;-72
2021/08/06 03:20:55;;;;;;;;;15.50;10.75;;;;;36.35;15.57;99763.41;144245;583;132014;-74
2021/08/06 03:23:29;;;;;;;;;13.50;10.50;;;;;36.45;15.52;99760.91;144221;571;132013;-70
2021/08/06 03:26:03;;;;;;;;;13.00;11.25;;;;;36.41;15.60;99762.44;144239;583;132010;-70
2021/08/06 03:28:37;;;;;;;;;10.50;10.25;;;;;36.39;15.74;99767.34;144227;600;131909;-70
2021/08/06 03:31:11;;;;;;;;;9.00;8.50;;;;;36.39;15.74;99767.34;144254;629;131021;-75
2021/08/06 03:33:45;;;;;;;;;11.75;10.25;;;;;36.28;15.54;99768.09;144226;579;132908;-71
2021/08/06 03:36:19;;;;;;;;;14.00;10.75;;;;;36.27;16.02;99761.81;144248;609;132010;-71
2021/08/06 03:38:53;;;;;;;;;11.75;10.75;;;;;35.57;17.32;99764.09;144231;632;131017;-70
2021/08/06 03:41:27;;;;;;;;;11.25;11.00;;;;;35.50;17.67;99759.78;144251;610;132010;-71
2021/08/06 03:44:01;;;;;;;;;19.75;14.25;;;;;35.69;16.81;99771.47;144218;578;132015;-73
2021/08/06 03:46:35;;;;;;;;;16.25;14.00;;;;;35.73;17.30;99769.94;144258;573;131023;-71
2021/08/06 03:49:09;;;;;;;;;10.75;9.75;;;;;35.93;17.54;99772.44;144225;586;132018;-70
2021/08/06 03:51:43;;;;;;;;;9.75;9.75;;;;;36.05;17.18;99776.03;144248;635;131022;-72
2021/08/06 03:54:17;;;;;;;;;14.25;13.00;;;;;36.20;17.55;99767.38;144228;570;132014;-73
2021/08/06 03:56:51;;;;;;;;;16.75;14.00;;;;;36.14;17.86;99764.75;144250;573;132010;-73
2021/08/06 03:59:25;;;;;;;;;13.25;11.00;;;;;36.61;17.45;99785.84;144224;711;132911;-72
2021/08/06 04:01:59;;;;;;;;;15.00;13.50;;;;;36.62;17.70;99782.06;144246;632;132010;-72
2021/08/06 04:04:34;;;;;;;;;20.00;14.75;;;;;36.35;18.81;99785.28;144213;577;132014;-71
2021/08/06 04:07:08;;;;;;;;;20.50;17.00;;;;;36.39;18.57;99791.94;144244;639;132015;-73
2021/08/06 04:09:42;;;;;;;;;14.50;11.50;;;;;36.58;18.81;99795.37;144221;581;132031;-71
2021/08/06 04:12:16;;;;;;;;;13.25;12.25;;;;;36.75;18.84;99792.75;144252;655;131020;-72
2021/08/06 04:14:50;;;;;;;;;15.50;14.75;;;;;36.68;18.68;99792.88;144221;610;132012;-71
2021/08/06 04:17:24;;;;;;;;;17.00;14.50;;;;;36.77;18.68;99787.87;144242;571;132014;-70
2021/08/06 04:19:58;;;;;;;;;17.50;15.00;;;;;36.87;18.60;99787.34;144217;564;132012;-68
2021/08/06 04:22:32;;;;;;;;;13.25;12.25;;;;;36.58;18.75;99787.16;144245;641;132010;-67
2021/08/06 04:25:06;;;;;;;;;16.25;13.50;;;;;36.61;19.08;99781.25;144217;729;132014;-67
2021/08/06 04:27:41;;;;;;;;;14.50;13.00;;;;;36.47;19.46;99793.47;144255;630;131020;-67
2021/08/06 04:30:16;;;;;;;;;20.75;17.50;;;;;36.57;19.34;99791.81;144215;615;132012;-67
2021/08/06 04:32:50;;;;;;;;;14.75;14.50;;;;;36.46;19.40;99791.78;144252;574;131020;-66
2021/08/06 04:35:24;;;;;;;;;17.75;15.50;;;;;36.82;19.12;99807.16;144218;712;132014;-68
2021/08/06 04:37:58;;;;;;;;;16.50;14.25;;;;;36.58;19.72;99807.16;144249;640;132010;-68
2021/08/06 04:40:33;;;;;;;;;15.25;14.25;;;;;36.13;20.55;99801.31;144216;630;132014;-70
2021/08/06 04:43:07;;;;;;;;;13.00;11.00;;;;;36.85;19.71;99812.16;144236;594;132014;-70
2021/08/06 04:45:41;;;;;;;;;18.75;16.25;;;;;37.00;19.37;99808.94;144222;584;132013;-69
2021/08/06 04:48:15;;;;;;;;;20.50;18.25;;;;;37.13;19.28;99812.47;144262;590;131020;-72
2021/08/06 04:50:49;;;;;;;;;14.25;12.00;;;;;37.13;19.50;99813.34;144226;708;131909;-72
2021/08/06 04:53:23;;;;;;;;;17.00;14.00;;;;;37.12;19.44;99817.13;144246;569;132011;-72
2021/08/06 04:55:57;;;;;;;;;15.50;14.00;;;;;37.07;19.97;99819.75;144222;563;131016;-70
2021/08/06 04:58:31;;;;;;;;;13.00;12.00;;;;;36.91;19.97;99816.69;144256;593;131020;-69
2021/08/06 05:01:04;;;;;;;;;16.25;12.75;;;;;36.61;20.44;99832.31;144225;582;131909;-68
2021/08/06 05:03:38;;;;;;;;;12.00;12.00;;;;;36.50;20.98;99823.91;144257;729;131020;-67
2021/08/06 05:06:13;;;;;;;;;15.25;15.00;;;;;36.78;20.80;99833.28;144216;574;132015;-68
2021/08/06 05:08:49;;;;;;;;;16.25;16.00;;;;;36.92;20.66;99828.44;144246;571;132008;-68
2021/08/06 05:11:23;;;;;;;;;12.25;12.25;;;;;36.86;20.92;99827.50;144224;573;132020;-72
2021/08/06 05:13:57;;;;;;;;;17.00;14.00;;;;;37.03;20.79;99826.78;144256;615;131022;-67
2021/08/06 05:16:31;;;;;;;;;13.75;13.50;;;;;36.89;20.94;99829.75;144225;650;131909;-66
2021/08/06 05:19:05;;;;;;;;;14.75;14.75;;;;;36.58;21.33;99826.28;144247;612;132014;-69
2021/08/06 05:21:39;;;;;;;;;13.75;13.75;;;;;36.84;21.05;99835.13;144215;576;132017;-69
2021/08/06 05:24:13;;;;;;;;;18.00;15.75;;;;;36.85;20.90;99828.56;144176;726;132010;-68
2021/08/06 05:26:50;;;;;;;;;20.75;17.50;;;;;36.77;21.45;99828.88;144169;735;132909;-67
2021/08/06 05:29:24;;;;;;;;;17.50;15.50;;;;;36.85;21.42;99830.47;144176;600;132010;-68
2021/08/06 05:31:58;;;;;;;;;12.75;11.50;;;;;36.91;21.02;99837.75;144150;587;132908;-71
2021/08/06 05:34:32;;;;;;;;;19.00;16.25;;;;;36.75;21.27;99831.88;144156;598;131022;-70
2021/08/06 05:37:07;;;;;;;;;18.00;14.00;;;;;36.76;21.53;99827.25;144157;593;132013;-71
2021/08/06 05:39:41;;;;;;;;;19.50;18.25;;;;;36.80;21.48;99828.47;144177;577;131020;-71
2021/08/06 05:42:15;;;;;;;;;21.00;15.75;;;;;36.55;21.80;99837.69;144152;603;132909;-72
2021/08/06 05:44:49;;;;;;;;;16.75;14.00;;;;;36.65;21.84;99838.97;144176;631;131021;-71
2021/08/06 05:47:23;;;;;;;;;17.25;14.50;;;;;36.41;21.64;99838.97;144147;602;132014;-71
2021/08/06 05:49:56;;;;;;;;;17.75;16.00;;;;;36.71;21.45;99838.88;144171;577;132015;-72
2021/08/06 05:52:30;;;;;;;;;16.75;14.75;;;;;36.82;21.08;99839.16;144160;565;132909;-71
2021/08/06 05:55:04;;;;;;;;;14.75;13.50;;;;;36.84;21.45;99839.75;144170;564;132010;-70
2021/08/06 05:57:38;;;;;;;;;22.25;17.50;;;;;36.79;21.54;99840.44;144154;581;132034;-72
2021/08/06 06:00:14;;;;;;;;;19.25;14.75;;;;;36.70;21.40;99837.22;144158;585;131021;-69
2021/08/06 06:02:48;;;;;;;;;16.00;15.25;;;;;36.51;21.64;99836.50;144157;589;131908;-69
2021/08/06 06:05:22;;;;;;;;;16.75;16.50;;;;;36.63;21.72;99830.19;144176;572;131021;-70
2021/08/06 06:07:56;;;;;;;;;21.00;19.50;;;;;36.01;21.92;99834.09;144153;696;131908;-70
2021/08/06 06:10:30;;;;;;;;;19.50;18.75;;;;;35.36;22.73;99838.22;144166;619;132014;-67
2021/08/06 06:13:04;;;;;;;;;21.25;20.25;;;;;35.75;22.13;99847.81;144146;602;132020;-72
2021/08/06 06:15:38;;;;;;;;;19.25;18.00;;;;;35.30;22.63;99839.13;144172;604;132014;-68
2021/08/06 06:18:12;;;;;;;;;25.25;20.00;;;;;35.39;22.17;99848.69;144161;593;132020;-67
2021/08/06 06:20:46;;;;;;;;;20.75;18.00;;;;;36.21;21.80;99845.56;144169;615;132015;-70
2021/08/06 06:23:20;;;;;;;;;22.00;20.50;;;;;35.97;21.56;99857.47;144153;571;131020;-68
2021/08/06 06:25:54;;;;;;;;;19.75;19.75;;;;;35.92;21.35;99855.41;144153;567;132010;-68
2021/08/06 06:28:28;;;;;;;;;23.50;22.00;;;;;36.72;20.82;99853.41;144157;577;132909;-68
2021/08/06 06:31:02;;;;;;;;;23.00;19.00;;;;;37.04;20.24;99853.06;144171;628;131022;-68
2021/08/06 06:33:36;;;;;;;;;24.00;23.00;;;;;37.19;20.43;99853.41;144149;601;132012;-69
2021/08/06 06:36:11;;;;;;;;;17.00;15.25;;;;;37.18;20.41;99854.50;144170;599;131021;-69
2021/08/06 06:38:45;;;;;;;;;20.00;19.25;;;;;36.34;21.00;99855.47;144153;569;131908;-68
2021/08/06 06:41:18;;;;;;;;;18.00;16.75;;;;;37.24;20.36;99852.69;144172;630;131022;-69
2021/08/06 06:43:52;;;;;;;;;20.50;19.00;;;;;37.57;20.16;99851.22;144163;670;132012;-70
2021/08/06 06:46:27;;;;;;;;;17.00;17.00;;;;;37.67;20.04;99845.94;144169;611;132014;-69
2021/08/06 06:49:01;;;;;;;;;18.00;16.50;;;;;37.59;20.01;99843.59;144151;642;132909;-68
2021/08/06 06:51:35;;;;;;;;;17.50;16.75;;;;;37.50;20.19;99845.06;144160;603;131021;-68
2021/08/06 06:54:09;;;;;;;;;23.00;21.75;;;;;37.54;19.42;99829.81;144148;571;132020;-70
2021/08/06 06:56:43;;;;;;;;;16.00;15.50;;;;;37.02;19.88;99820.47;144171;670;132008;-70
2021/08/06 06:59:17;;;;;;;;;23.00;20.25;;;;;37.40;19.38;99824.63;144146;671;132909;-70
2021/08/06 07:01:51;;;;;;;;;20.50;19.75;;;;;37.47;19.84;99819.00;144173;613;132010;-71
2021/08/06 07:04:25;;;;;;;;;20.75;18.50;;;;;37.48;20.18;99815.16;144151;660;132909;-70
2021/08/06 07:06:59;;;;;;;;;19.25;19.25;;;;;37.88;19.71;99819.81;144166;594;132014;-70
2021/08/06 07:09:33;;;;;;;;;27.00;20.25;;;;;38.09;19.53;99814.72;144169;621;132012;-69
2021/08/06 07:12:07;;;;;;;;;19.00;18.50;;;;;38.27;18.94;99799.97;144175;575;131022;-70
2021/08/06 07:14:41;;;;;;;;;19.50;17.75;;;;;38.35;18.42;99796.00;144147;583;132909;-68
2021/08/06 07:17:15;;;;;;;;;19.50;18.50;;;;;37.55;19.59;99796.72;144156;642;132014;-70
2021/08/06 07:19:49;;;;;;;;;11.75;11.75;;;;;38.67;18.88;99795.41;144155;676;132012;-69
2021/08/06 07:22:23;;;;;;;;;19.50;18.25;;;;;38.88;18.37;99797.38;144177;577;131022;-69
2021/08/06 07:24:57;;;;;;;;;20.00;17.50;;;;;38.80;18.52;99799.75;144152;592;132012;-70
2021/08/06 07:27:31;;;;;;;;;15.25;15.25;;;;;38.90;17.89;99803.44;144172;621;132011;-70
2021/08/06 07:30:05;;;;;;;;;17.50;17.50;;;;;39.30;17.50;99807.03;144152;594;132012;-70
2021/08/06 07:32:39;;;;;;;;;18.50;14.00;;;;;38.82;17.76;99814.84;144177;583;131018;-70
2021/08/06 07:35:14;;;;;;;;;17.25;17.25;;;;;38.91;17.80;99810.59;144170;620;131017;-70
2021/08/06 07:37:48;;;;;;;;;22.00;17.50;;;;;38.40;18.11;99826.25;144176;563;132010;-71
2021/08/06 07:40:22;;;;;;;;;15.75;15.50;;;;;38.48;17.91;99817.59;144156;595;131909;-70
2021/08/06 07:42:56;;;;;;;;;17.00;16.75;;;;;38.97;17.79;99832.63;144155;584;132013;-70
2021/08/06 07:45:30;;;;;;;;;19.00;17.00;;;;;38.93;18.15;99827.63;144154;588;131025;-70
2021/08/06 07:48:04;;;;;;;;;21.25;21.25;;;;;37.56;18.93;99838.59;144177;563;131020;-71
2021/08/06 07:50:38;;;;;;;;;17.00;17.00;;;;;38.56;18.62;99839.13;144154;614;132909;-70
2021/08/06 07:53:16;;;;;;;;;21.75;20.75;;;;;38.17;18.68;99832.66;144169;584;132014;-70
2021/08/06 07:55:50;;;;;;;;;22.25;22.00;;;;;38.40;19.01;99835.28;144152;582;132012;-70
2021/08/06 07:58:25;;;;;;;;;20.00;19.00;;;;;38.67;19.25;99825.56;144169;564;132010;-70
2021/08/06 08:00:59;;;;;;;;;19.75;19.75;;;;;39.00;18.63;99830.22;144164;611;132908;-70
2021/08/06 08:03:35;;;;;;;;;20.25;20.25;;;;;39.30;18.22;99828.16;144192;650;131012;-71
2021/08/06 08:06:09;;;;;;;;;21.00;20.25;;;;;38.35;18.80;99834.37;144174;586;131041;-70
2021/08/06 08:08:42;;;;;;;;;20.50;18.75;;;;;38.60;18.52;99834.78;144178;620;131010;-71
2021/08/06 08:11:16;;;;;;;;;19.00;18.75;;;;;38.85;18.15;99832.72;144175;573;131013;-70
2021/08/06 08:13:50;;;;;;;;;18.25;17.50;;;;;39.32;18.25;99842.47;144197;742;130021;-70
2021/08/06 08:16:24;;;;;;;;;16.50;16.50;;;;;39.29;17.44;99843.78;144179;660;131909;-70
2021/08/06 08:18:58;;;;;;;;;18.00;16.00;;;;;39.91;16.96;99833.53;144191;605;131015;-70
2021/08/06 08:21:32;;;;;;;;;19.25;16.75;;;;;39.97;17.06;99834.41;144172;590;131020;-70
2021/08/06 08:24:06;;;;;;;;;17.75;16.00;;;;;38.60;18.83;99826.56;144189;584;131012;-70
2021/08/06 08:26:40;;;;;;;;;18.50;17.00;;;;;39.88;16.82;99829.41;144185;610;131012;-70
2021/08/06 08:29:15;;;;;;;;;16.75;15.00;;;;;39.67;18.01;99830.25;144190;624;131010;-70
2021/08/06 08:31:49;;;;;;;;;17.50;16.00;;;;;40.53;17.25;99828.66;144172;588;131014;-71
2021/08/06 08:34:24;;;;;;;;;19.75;18.00;;;;;40.45;16.76;99832.72;144179;605;130021;-70
2021/08/06 08:36:58;;;;;;;;;19.50;15.25;;;;;40.59;16.04;99839.44;144172;569;130908;-70
2021/08/06 08:39:32;;;;;;;;;17.00;16.50;;;;;40.93;16.28;99830.06;144192;616;131014;-71
2021/08/06 08:42:07;;;;;;;;;20.25;17.75;;;;;41.00;16.54;99836.16;144175;616;131014;-70
2021/08/06 08:44:43;;;;;;;;;16.50;15.50;;;;;40.79;16.73;99824.16;144198;565;130020;-70
2021/08/06 08:47:24;;;;;;;;;14.25;14.25;;;;;41.09;16.21;99833.72;144174;752;131012;-71
2021/08/06 08:49:58;;;;;;;;;14.00;14.00;;;;;41.14;16.24;99821.91;144193;620;131013;-70
2021/08/06 08:52:32;;;;;;;;;13.50;13.25;;;;;41.00;16.34;99829.84;144185;603;131012;-70
2021/08/06 08:55:08;;;;;;;;;17.00;17.00;;;;;40.92;16.37;99820.13;144192;584;131010;-70
2021/08/06 08:57:42;;;;;;;;;15.00;15.00;;;;;40.73;16.63;99817.78;144171;569;131021;-70
2021/08/06 09:00:16;;;;;;;;;16.50;15.00;;;;;40.26;16.47;99816.59;144177;615;130020;-70
2021/08/06 09:02:50;;;;;;;;;17.25;16.00;;;;;41.34;15.45;99815.66;144154;591;132012;-70
2021/08/06 09:05:28;;;;;;;;;16.75;13.75;;;;;41.60;15.93;99809.19;144167;564;132012;-71
2021/08/06 09:08:19;;;;;;;;;12.00;12.00;;;;;41.31;16.04;99795.03;144147;574;132908;-70
2021/08/06 09:10:53;;;;;;;;;12.50;11.50;;;;;41.38;16.00;99797.53;144171;575;132010;-71
2021/08/06 09:13:29;;;;;;;;;13.75;13.75;;;;;41.85;15.15;99787.50;144151;666;132020;-70
2021/08/06 09:16:04;;;;;;;;;13.50;10.00;;;;;41.49;15.09;99804.75;144174;690;131022;-70
2021/08/06 09:18:42;;;;;;;;;13.25;12.25;;;;;41.98;14.92;99789.72;144164;632;132013;-70
2021/08/06 09:21:34;;;;;;;;;12.75;12.75;;;;;42.26;14.92;99791.12;144173;659;132010;-70
2021/08/06 09:24:08;;;;;;;;;9.75;9.25;;;;;42.23;14.25;99790.88;144149;607;132014;-70
2021/08/06 09:26:46;;;;;;;;;11.25;11.25;;;;;41.94;14.76;99794.94;144153;603;132010;-71
2021/08/06 09:29:25;;;;;;;;;12.00;11.75;;;;;41.64;15.23;99781.94;144149;622;132012;-70
2021/08/06 09:32:02;;;;;;;;;14.50;11.00;;;;;41.73;14.60;99791.28;144170;638;132010;-69
2021/08/06 09:34:38;;;;;;;;;14.00;13.00;;;;;41.50;15.45;99789.84;144150;608;132909;-71
2021/08/06 09:37:22;;;;;;;;;12.75;12.75;;;;;41.48;14.76;99771.97;144173;595;132008;-70
2021/08/06 09:40:17;;;;;;;;;7.50;7.50;;;;;41.20;14.63;99776.78;144149;644;132013;-72
2021/08/06 09:43:17;;;;;;;;;14.50;11.75;;;;;41.47;15.14;99778.56;144173;636;132008;-70
2021/08/06 09:45:51;;;;;;;;;11.00;11.00;;;;;41.83;14.82;99768.50;144161;617;132046;-71
2021/08/06 09:48:32;;;;;;;;;13.00;12.00;;;;;42.04;14.84;99754.72;144170;628;132008;-71
2021/08/06 09:51:06;;;;;;;;;16.00;12.00;;;;;42.35;14.30;99752.81;144154;571;131906;-70
2021/08/06 09:53:40;;;;;;;;;14.50;13.50;;;;;42.61;14.58;99748.06;144154;650;131020;-70
2021/08/06 09:56:19;;;;;;;;;13.50;13.00;;;;;42.28;14.60;99755.84;144151;569;132012;-70
2021/08/06 09:59:02;;;;;;;;;14.75;14.00;;;;;42.15;14.40;99748.09;144166;593;132010;-70
2021/08/06 10:01:36;;;;;;;;;17.50;16.50;;;;;41.93;15.00;99751.13;144149;621;132017;-71
2021/08/06 10:04:18;;;;;;;;;13.75;12.75;;;;;42.68;13.75;99738.69;144173;578;132009;-71
2021/08/06 10:07:03;;;;;;;;;17.75;15.00;;;;;42.40;13.27;99733.47;144149;653;132018;-70
2021/08/06 10:09:37;;;;;;;;;13.25;13.25;;;;;42.69;13.13;99738.41;144172;601;132012;-69
2021/08/06 10:12:11;;;;;;;;;14.50;13.50;;;;;42.70;12.69;99723.50;144165;638;132012;-67
2021/08/06 10:14:45;;;;;;;;;11.75;11.75;;;;;41.99;12.93;99735.44;144170;645;132012;-68
2021/08/06 10:17:19;;;;;;;;;11.50;10.25;;;;;42.61;12.80;99726.00;144150;607;132012;-69
2021/08/06 10:19:54;;;;;;;;;10.00;9.75;;;;;41.84;13.46;99747.25;144154;607;132014;-69
2021/08/06 10:22:28;;;;;;;;;15.50;14.50;;;;;41.79;14.06;99742.59;144154;573;132012;-70
2021/08/06 10:25:03;;;;;;;;;12.75;9.25;;;;;42.52;12.69;99732.38;144170;605;132014;-71
2021/08/06 10:27:38;;;;;;;;;14.25;12.75;;;;;41.51;13.15;99724.63;144151;609;132012;-70
2021/08/06 10:30:36;;;;;;;;;15.50;11.50;;;;;42.85;12.71;99719.84;144171;575;132014;-68
2021/08/06 10:33:29;;;;;;;;;10.25;9.25;;;;;43.07;13.00;99727.78;144149;625;132909;-70
2021/08/06 10:36:05;;;;;;;;;12.25;11.75;;;;;43.06;12.53;99714.28;144171;607;132014;-70
2021/08/06 10:38:47;;;;;;;;;12.00;12.00;;;;;43.02;13.22;99711.25;144160;587;132020;-71
2021/08/06 10:41:23;;;;;;;;;12.50;11.00;;;;;42.39;12.84;99717.22;144170;573;132012;-71
2021/08/06 10:44:08;;;;;;;;;9.00;8.75;;;;;43.44;11.79;99709.09;144151;582;132012;-71
2021/08/06 10:47:08;;;;;;;;;13.00;11.50;;;;;43.02;11.83;99688.31;144153;602;132011;-70
2021/08/06 10:49:44;;;;;;;;;9.50;9.00;;;;;43.30;11.78;99716.38;144149;587;132012;-71
2021/08/06 10:52:21;;;;;;;;;9.25;8.75;;;;;42.31;12.27;99712.25;144174;593;132010;-70
2021/08/06 10:54:55;;;;;;;;;11.00;11.00;;;;;43.03;11.13;99706.53;144151;587;132018;-71
2021/08/06 10:57:40;;;;;;;;;12.00;11.00;;;;;43.50;10.95;99694.16;144169;604;131022;-71
2021/08/06 11:00:14;;;;;;;;;11.25;11.25;;;;;43.05;11.87;99687.78;144153;605;132012;-70
2021/08/06 11:02:49;;;;;;;;;11.00;11.00;;;;;42.52;12.24;99672.50;144169;617;132010;-69
2021/08/06 11:05:41;;;;;;;;;13.25;11.75;;;;;41.75;12.30;99683.59;144159;583;132906;-70
2021/08/06 11:08:51;;;;;;;;;11.75;11.50;;;;;42.41;12.10;99687.44;144174;615;131021;-71
2021/08/06 11:11:44;;;;;;;;;10.50;10.00;;;;;43.01;11.25;99690.25;144152;657;131907;-70
2021/08/06 11:14:53;;;;;;;;;11.75;9.00;;;;;42.97;11.60;99663.53;144153;573;132014;-70
2021/08/06 11:17:49;;;;;;;;;11.75;10.00;;;;;42.75;11.36;99665.53;144156;601;131909;-71
2021/08/06 11:20:26;;;;;;;;;8.50;8.25;;;;;43.26;11.03;99667.22;144176;601;131020;-71
2021/08/06 11:23:00;;;;;;;;;16.00;13.00;;;;;43.25;11.32;99660.06;144152;608;132012;-70
2021/08/06 11:25:34;;;;;;;;;11.00;10.00;;;;;42.12;12.08;99643.91;144172;566;132008;-69
2021/08/06 11:28:08;;;;;;;;;12.00;10.50;;;;;43.00;10.85;99665.72;144154;593;132906;-71
2021/08/06 11:30:42;;;;;;;;;11.00;10.00;;;;;43.09;11.02;99656.56;144170;599;132010;-71
2021/08/06 11:33:16;;;;;;;;;13.75;12.50;;;;;43.03;11.39;99656.84;144165;582;131016;-70
2021/08/06 11:35:50;;;;;;;;;9.75;9.25;;;;;43.41;11.79;99648.91;144170;726;132010;-72
2021/08/06 11:38:26;;;;;;;;;11.00;9.75;;;;;43.80;11.54;99637.03;144146;610;133012;-71
2021/08/06 11:41:01;;;;;;;;;11.25;10.50;;;;;43.90;11.03;99636.13;144159;581;132010;-70
2021/08/06 11:43:39;;;;;;;;;11.50;7.75;;;;;43.63;11.29;99648.47;144155;591;132020;-71
2021/08/06 11:46:16;;;;;;;;;11.00;11.00;;;;;43.56;11.13;99643.28;144175;580;131021;-71
2021/08/06 11:49:00;;;;;;;;;13.50;13.50;;;;;43.62;10.91;99641.31;144155;608;131906;-70
2021/08/06 11:51:34;;;;;;;;;10.75;9.75;;;;;43.41;11.33;99635.91;144170;592;132010;-71
2021/08/06 11:54:14;;;;;;;;;10.00;9.00;;;;;43.87;11.35;99629.25;144147;581;132907;-70
2021/08/06 11:56:48;;;;;;;;;11.50;9.50;;;;;42.55;12.00;99627.81;144173;644;132012;-71